Time;durP1;ratioP1;P1;durP2;ratioP2;P2;SDS_P1;SDS_P2;PMS_P1;PMS_P2;Temp;Humidity;BMP_temperature;BMP_pressure;BME280_temperature;BME280_humidity;BME280_pressure;Samples;Min_cycle;Max_cycle;Signal;HPM_P1;HPM_P2
2022/11/09 00:00:47;;;;;;;106.70;56.00;;;;;;;;;;2114548;28;20381;-42
2022/11/09 00:01:48;;;;;;;106.57;50.00;;;;;;;;;;2114719;28;20217;-42
2022/11/09 00:02:49;;;;;;;98.13;49.40;;;;;;;;;;2114521;28;20056;-42
2022/11/09 00:03:54;;;;;;;104.25;52.40;;;;;;;;;;2114641;28;20101;-42
2022/11/09 00:04:54;;;;;;;92.30;47.05;;;;;;;;;;2114799;28;20048;-42
2022/11/09 00:05:56;;;;;;;94.57;49.07;;;;;;;;;;2114426;28;20046;-41
2022/11/09 00:06:57;;;;;;;92.45;49.28;;;;;;;;;;2114787;28;20488;-45
2022/11/09 00:07:58;;;;;;;82.15;43.50;;;;;;;;;;2114566;28;20043;-46
2022/11/09 00:09:00;;;;;;;83.20;45.03;;;;;;;;;;2114672;28;20607;-46
2022/11/09 00:10:08;;;;;;;89.57;47.47;;;;;;;;;;2114697;28;20059;-47
2022/11/09 00:11:10;;;;;;;87.55;45.03;;;;;;;;;;2114374;28;20055;-47
2022/11/09 00:12:11;;;;;;;78.88;44.25;;;;;;;;;;2114468;28;20040;-45
2022/11/09 00:13:13;;;;;;;86.43;44.17;;;;;;;;;;2114407;28;20044;-45
2022/11/09 00:14:13;;;;;;;103.28;48.45;;;;;;;;;;2114598;28;20054;-47
2022/11/09 00:15:15;;;;;;;94.57;48.93;;;;;;;;;;2114592;28;20086;-46
2022/11/09 00:16:16;;;;;;;95.72;48.63;;;;;;;;;;2114562;28;20093;-46
2022/11/09 00:17:17;;;;;;;89.50;43.67;;;;;;;;;;2114459;28;20085;-46
2022/11/09 00:18:18;;;;;;;90.20;48.13;;;;;;;;;;2114600;28;20476;-46
2022/11/09 00:19:19;;;;;;;89.18;48.35;;;;;;;;;;2114533;28;20067;-46
2022/11/09 00:20:20;;;;;;;84.72;47.38;;;;;;;;;;2114391;28;20044;-45
2022/11/09 00:21:23;;;;;;;88.47;45.10;;;;;;;;;;2114691;28;20051;-42
2022/11/09 00:22:23;;;;;;;81.93;43.10;;;;;;;;;;2114495;28;20392;-42
2022/11/09 00:23:25;;;;;;;86.03;47.07;;;;;;;;;;2114469;28;20051;-42
2022/11/09 00:24:25;;;;;;;94.85;46.72;;;;;;;;;;2114755;28;20060;-42
2022/11/09 00:25:27;;;;;;;93.55;48.83;;;;;;;;;;2114399;28;20101;-42
2022/11/09 00:26:27;;;;;;;86.22;44.67;;;;;;;;;;2114540;28;20040;-42
2022/11/09 00:27:29;;;;;;;89.97;45.47;;;;;;;;;;2114709;28;20066;-42
2022/11/09 00:28:30;;;;;;;86.07;43.63;;;;;;;;;;2114382;28;20044;-42
2022/11/09 00:29:31;;;;;;;90.10;48.00;;;;;;;;;;2114636;28;20043;-42
2022/11/09 00:30:32;;;;;;;86.88;44.92;;;;;;;;;;2114269;28;20492;-41
2022/11/09 00:31:34;;;;;;;84.57;44.28;;;;;;;;;;2114426;28;20062;-42
2022/11/09 00:32:35;;;;;;;84.60;46.00;;;;;;;;;;2114475;28;20071;-41
2022/11/09 00:33:36;;;;;;;81.03;43.40;;;;;;;;;;2114606;28;20354;-42
2022/11/09 00:34:37;;;;;;;77.65;40.50;;;;;;;;;;2114455;28;20059;-42
2022/11/09 00:35:38;;;;;;;78.28;42.55;;;;;;;;;;2114714;28;20062;-46
2022/11/09 00:36:39;;;;;;;76.93;43.13;;;;;;;;;;2114298;28;20047;-45
2022/11/09 00:37:41;;;;;;;84.43;42.30;;;;;;;;;;2114565;28;20094;-45
2022/11/09 00:38:42;;;;;;;;;;;;;;;;;;2114928;28;20319;-42
2022/11/09 00:39:43;;;;;;;75.50;43.30;;;;;;;;;;2114262;28;19926;-41
2022/11/09 00:40:44;;;;;;;65.45;30.88;;;;;;;;;;2114404;28;20070;-42
2022/11/09 00:41:45;;;;;;;89.30;46.50;;;;;;;;;;2114364;28;20043;-42
2022/11/09 00:42:46;;;;;;;80.53;39.90;;;;;;;;;;2114565;28;20052;-42
2022/11/09 00:43:48;;;;;;;82.82;42.60;;;;;;;;;;2114378;28;20444;-42
2022/11/09 00:44:50;;;;;;;89.32;44.67;;;;;;;;;;2114316;28;20475;-42
2022/11/09 00:45:51;;;;;;;86.27;45.10;;;;;;;;;;2114060;28;20293;-42
2022/11/09 00:46:52;;;;;;;87.20;44.95;;;;;;;;;;2114721;28;20055;-46
2022/11/09 00:47:53;;;;;;;78.95;42.30;;;;;;;;;;2114237;28;20493;-47
2022/11/09 00:48:54;;;;;;;84.38;44.58;;;;;;;;;;2114416;28;20044;-47
2022/11/09 00:49:56;;;;;;;78.10;39.22;;;;;;;;;;2114631;28;20263;-45
2022/11/09 00:50:56;;;;;;;76.20;36.50;;;;;;;;;;2114477;28;20446;-47
2022/11/09 00:51:58;;;;;;;76.50;42.17;;;;;;;;;;2114529;28;20407;-42
2022/11/09 00:52:59;;;;;;;70.72;38.90;;;;;;;;;;2114224;28;20476;-42
2022/11/09 00:54:00;;;;;;;76.60;42.55;;;;;;;;;;2114379;28;20048;-42
2022/11/09 00:55:00;;;;;;;60.75;33.58;;;;;;;;;;2114533;28;20043;-46
2022/11/09 00:56:03;;;;;;;67.43;39.20;;;;;;;;;;2114331;28;20048;-46
2022/11/09 00:57:03;;;;;;;66.15;39.42;;;;;;;;;;2114154;28;20484;-46
2022/11/09 00:58:05;;;;;;;72.40;37.27;;;;;;;;;;2114477;28;20039;-42
2022/11/09 00:59:08;;;;;;;69.60;38.42;;;;;;;;;;2114624;28;20047;-41
2022/11/09 01:00:10;;;;;;;66.53;35.33;;;;;;;;;;2114345;28;20036;-42
2022/11/09 01:01:12;;;;;;;65.15;36.17;;;;;;;;;;2114320;28;20055;-42
2022/11/09 01:02:13;;;;;;;;;;;;;;;;;;2114649;28;20079;-42
2022/11/09 01:03:14;;;;;;;65.47;39.50;;;;;;;;;;2114403;28;20026;-42
2022/11/09 01:04:15;;;;;;;75.00;40.75;;;;;;;;;;2114197;28;20040;-42
2022/11/09 01:05:16;;;;;;;63.58;37.45;;;;;;;;;;2114531;28;20047;-47
2022/11/09 01:06:18;;;;;;;60.58;34.85;;;;;;;;;;2114116;28;20055;-46
2022/11/09 01:07:19;;;;;;;69.30;37.38;;;;;;;;;;2114329;28;20044;-46
2022/11/09 01:08:20;;;;;;;68.97;38.63;;;;;;;;;;2114191;28;20039;-46
2022/11/09 01:09:21;;;;;;;71.95;38.00;;;;;;;;;;2114032;28;20093;-46
2022/11/09 01:10:22;;;;;;;71.65;40.35;;;;;;;;;;2114218;28;20083;-42
2022/11/09 01:11:23;;;;;;;78.35;42.80;;;;;;;;;;2114297;28;20051;-42
2022/11/09 01:12:24;;;;;;;78.03;36.20;;;;;;;;;;2114411;28;20408;-42
2022/11/09 01:13:26;;;;;;;74.07;39.78;;;;;;;;;;2114183;28;20472;-41
2022/11/09 01:14:27;;;;;;;68.78;38.30;;;;;;;;;;2114376;28;20507;-42
2022/11/09 01:15:28;;;;;;;65.35;38.15;;;;;;;;;;2114050;28;20040;-41
2022/11/09 01:16:29;;;;;;;70.03;37.05;;;;;;;;;;2114349;28;20062;-42
2022/11/09 01:17:30;;;;;;;70.50;38.20;;;;;;;;;;2114185;28;20047;-42
2022/11/09 01:18:32;;;;;;;68.03;35.08;;;;;;;;;;2114363;28;20055;-42
2022/11/09 01:19:33;;;;;;;61.90;35.05;;;;;;;;;;2114428;28;20048;-46
2022/11/09 01:20:37;;;;;;;56.85;31.20;;;;;;;;;;2114236;28;20045;-42
2022/11/09 01:21:38;;;;;;;64.53;35.90;;;;;;;;;;2114167;28;20048;-41
2022/11/09 01:22:39;;;;;;;63.70;35.72;;;;;;;;;;2114136;28;20062;-42
2022/11/09 01:23:41;;;;;;;64.07;35.60;;;;;;;;;;2114396;28;20071;-42
2022/11/09 01:24:42;;;;;;;61.75;33.55;;;;;;;;;;2114065;28;20069;-42
2022/11/09 01:25:43;;;;;;;61.60;33.70;;;;;;;;;;2114032;28;20523;-42
2022/11/09 01:26:44;;;;;;;64.03;36.23;;;;;;;;;;2114021;28;20048;-42
2022/11/09 01:27:45;;;;;;;60.58;32.88;;;;;;;;;;2114056;28;20412;-42
2022/11/09 01:28:46;;;;;;;62.83;33.97;;;;;;;;;;2114081;28;20048;-42
2022/11/09 01:29:48;;;;;;;58.13;32.15;;;;;;;;;;2114217;28;20055;-42
2022/11/09 01:30:49;;;;;;;58.15;33.63;;;;;;;;;;2114018;28;20065;-42
2022/11/09 01:31:53;;;;;;;60.65;31.98;;;;;;;;;;2114204;28;20040;-42
2022/11/09 01:32:54;;;;;;;65.90;34.85;;;;;;;;;;2114021;28;20047;-42
2022/11/09 01:33:55;;;;;;;57.35;29.77;;;;;;;;;;2114196;28;20118;-42
2022/11/09 01:34:56;;;;;;;57.33;30.25;;;;;;;;;;2114143;28;20055;-42
2022/11/09 01:36:00;;;;;;;65.85;35.00;;;;;;;;;;2113927;28;20054;-42
2022/11/09 01:37:01;;;;;;;61.15;28.50;;;;;;;;;;2114178;28;20048;-42
2022/11/09 01:38:03;;;;;;;61.63;34.83;;;;;;;;;;2113972;28;20452;-42
2022/11/09 01:39:04;;;;;;;49.83;26.20;;;;;;;;;;2113992;28;20474;-42
2022/11/09 01:40:06;;;;;;;64.88;33.20;;;;;;;;;;2113947;28;20069;-42
2022/11/09 01:41:08;;;;;;;65.63;34.72;;;;;;;;;;2114129;28;20039;-42
2022/11/09 01:42:09;;;;;;;68.40;34.88;;;;;;;;;;2114005;28;20097;-41
2022/11/09 01:43:14;;;;;;;67.10;35.43;;;;;;;;;;2114144;28;20097;-42
2022/11/09 01:44:16;;;;;;;62.20;32.00;;;;;;;;;;2114243;28;20043;-46
2022/11/09 01:45:21;;;;;;;67.25;36.63;;;;;;;;;;2113993;28;20508;-46
2022/11/09 01:46:23;;;;;;;68.40;35.08;;;;;;;;;;2114174;28;20059;-42
2022/11/09 01:47:25;;;;;;;63.70;34.45;;;;;;;;;;2114112;28;20043;-42
2022/11/09 01:48:31;;;;;;;72.80;37.20;;;;;;;;;;2114005;28;20097;-42
2022/11/09 01:49:36;;;;;;;62.47;35.08;;;;;;;;;;2114187;28;20050;-42
2022/11/09 01:50:43;;;;;;;67.78;36.80;;;;;;;;;;2113876;28;20048;-42
2022/11/09 01:51:47;;;;;;;60.60;29.17;;;;;;;;;;2113808;28;20043;-42
2022/11/09 01:52:48;;;;;;;64.38;34.90;;;;;;;;;;2114074;28;20052;-42
2022/11/09 01:53:51;;;;;;;61.75;34.17;;;;;;;;;;2113974;28;20499;-42
2022/11/09 01:54:53;;;;;;;57.28;32.28;;;;;;;;;;2113929;28;20055;-42
2022/11/09 01:55:56;;;;;;;51.70;29.75;;;;;;;;;;2113816;28;20048;-42
2022/11/09 01:56:58;;;;;;;59.70;29.05;;;;;;;;;;2113897;28;20389;-41
2022/11/09 01:58:02;;;;;;;59.28;34.30;;;;;;;;;;2115502;28;20055;-45
2022/11/09 01:59:04;;;;;;;56.75;31.88;;;;;;;;;;2115488;28;20179;-46
2022/11/09 02:00:07;;;;;;;53.97;30.85;;;;;;;;;;2115293;28;20109;-46
2022/11/09 02:01:10;;;;;;;52.08;30.27;;;;;;;;;;2115317;28;20472;-46
2022/11/09 02:02:11;;;;;;;56.97;31.80;;;;;;;;;;2115410;28;20071;-45
2022/11/09 02:03:14;;;;;;;51.85;31.95;;;;;;;;;;2115516;28;20060;-45
2022/11/09 02:04:19;;;;;;;53.15;30.77;;;;;;;;;;2115638;28;20125;-41
2022/11/09 02:05:22;;;;;;;43.40;24.75;;;;;;;;;;2115105;28;20043;-42
2022/11/09 02:06:25;;;;;;;48.33;29.02;;;;;;;;;;2115424;28;20051;-41
2022/11/09 02:07:26;;;;;;;45.80;25.75;;;;;;;;;;2115320;28;20054;-42
2022/11/09 02:08:27;;;;;;;50.03;26.15;;;;;;;;;;2115373;28;20492;-42
2022/11/09 02:09:32;;;;;;;47.15;27.50;;;;;;;;;;2115350;28;20113;-42
2022/11/09 02:10:36;;;;;;;50.58;25.05;;;;;;;;;;2115449;28;20055;-42
2022/11/09 02:11:37;;;;;;;45.70;27.67;;;;;;;;;;2115370;28;20055;-47
2022/11/09 02:12:39;;;;;;;45.50;24.97;;;;;;;;;;2115663;28;20142;-42
2022/11/09 02:13:42;;;;;;;47.78;24.50;;;;;;;;;;2115350;28;20044;-42
2022/11/09 02:14:43;;;;;;;50.42;27.08;;;;;;;;;;2115626;28;20105;-46
2022/11/09 02:15:44;;;;;;;46.08;26.95;;;;;;;;;;2115283;28;20051;-45
2022/11/09 02:16:47;;;;;;;42.63;24.70;;;;;;;;;;2115440;28;20052;-47
2022/11/09 02:17:50;;;;;;;45.53;28.05;;;;;;;;;;2115263;28;20488;-45
2022/11/09 02:18:52;;;;;;;46.75;28.00;;;;;;;;;;2115193;28;20480;-46
2022/11/09 02:19:53;;;;;;;;;;;;;;;;;;2115749;28;20048;-45
2022/11/09 02:20:56;;;;;;;35.33;20.60;;;;;;;;;;2114907;28;19973;-46
2022/11/09 02:21:57;;;;;;;46.25;26.58;;;;;;;;;;2115386;28;20043;-42
2022/11/09 02:22:58;;;;;;;39.57;24.03;;;;;;;;;;2115335;28;20044;-42
2022/11/09 02:23:59;;;;;;;43.42;24.52;;;;;;;;;;2115452;28;20077;-46
2022/11/09 02:25:01;;;;;;;37.85;21.63;;;;;;;;;;2115174;28;20175;-45
2022/11/09 02:26:03;;;;;;;38.90;23.27;;;;;;;;;;2115266;28;20058;-46
2022/11/09 02:27:05;;;;;;;41.15;24.95;;;;;;;;;;2115271;28;20047;-47
2022/11/09 02:28:06;;;;;;;40.75;24.15;;;;;;;;;;2115220;28;20540;-45
2022/11/09 02:29:08;;;;;;;35.87;18.80;;;;;;;;;;2115344;28;20044;-47
2022/11/09 02:30:11;;;;;;;45.67;24.88;;;;;;;;;;2115313;28;20036;-46
2022/11/09 02:31:13;;;;;;;41.25;23.25;;;;;;;;;;2115191;28;20052;-46
2022/11/09 02:32:17;;;;;;;37.22;23.80;;;;;;;;;;2115098;28;20036;-46
2022/11/09 02:33:19;;;;;;;41.85;23.15;;;;;;;;;;2115468;28;20050;-46
2022/11/09 02:34:20;;;;;;;41.58;24.67;;;;;;;;;;2115392;28;20043;-42
2022/11/09 02:35:22;;;;;;;46.72;23.35;;;;;;;;;;2115098;28;20051;-41
2022/11/09 02:36:23;;;;;;;41.22;23.70;;;;;;;;;;2115172;28;20044;-42
2022/11/09 02:37:25;;;;;;;43.47;26.08;;;;;;;;;;2115288;28;20073;-42
2022/11/09 02:38:27;;;;;;;36.83;23.38;;;;;;;;;;2115139;28;20044;-42
2022/11/09 02:39:28;;;;;;;42.55;22.33;;;;;;;;;;2115270;28;20039;-42
2022/11/09 02:40:31;;;;;;;42.17;24.77;;;;;;;;;;2115017;28;20503;-41
2022/11/09 02:41:36;;;;;;;35.47;20.73;;;;;;;;;;2115365;28;20081;-42
2022/11/09 02:42:37;;;;;;;41.53;23.30;;;;;;;;;;2115091;28;20544;-42
2022/11/09 02:43:38;;;;;;;38.95;22.35;;;;;;;;;;2115328;28;20039;-42
2022/11/09 02:44:40;;;;;;;35.20;21.92;;;;;;;;;;2115235;28;20054;-42
2022/11/09 02:45:41;;;;;;;34.72;19.33;;;;;;;;;;2115155;28;20048;-43
2022/11/09 02:46:43;;;;;;;28.05;15.70;;;;;;;;;;2115210;28;20085;-42
2022/11/09 02:47:44;;;;;;;29.95;19.00;;;;;;;;;;2115061;28;20407;-42
2022/11/09 02:48:45;;;;;;;34.85;19.85;;;;;;;;;;2115167;28;20047;-42
2022/11/09 02:49:46;;;;;;;32.05;16.65;;;;;;;;;;2115108;28;20043;-42
2022/11/09 02:50:47;;;;;;;29.20;18.80;;;;;;;;;;2115012;28;20051;-42
2022/11/09 02:51:49;;;;;;;42.47;21.40;;;;;;;;;;2114924;28;20114;-42
2022/11/09 02:52:50;;;;;;;44.50;23.73;;;;;;;;;;2115209;28;20051;-42
2022/11/09 02:53:51;;;;;;;38.30;20.15;;;;;;;;;;2115331;28;20051;-42
2022/11/09 02:54:52;;;;;;;32.40;20.70;;;;;;;;;;2115235;28;20043;-42
2022/11/09 02:55:53;;;;;;;35.15;20.23;;;;;;;;;;2115255;28;20051;-42
2022/11/09 02:56:54;;;;;;;35.93;19.27;;;;;;;;;;2115447;28;20521;-46
2022/11/09 02:57:55;;;;;;;35.80;21.83;;;;;;;;;;2115093;28;20052;-46
2022/11/09 02:58:56;;;;;;;41.72;22.77;;;;;;;;;;2115035;28;20078;-45
2022/11/09 02:59:57;;;;;;;34.15;20.02;;;;;;;;;;2115112;28;20051;-46
2022/11/09 03:00:58;;;;;;;44.83;24.93;;;;;;;;;;2115010;28;20058;-45
2022/11/09 03:01:59;;;;;;;42.60;24.35;;;;;;;;;;2114837;28;20073;-45
2022/11/09 03:03:01;;;;;;;38.40;19.92;;;;;;;;;;2115097;28;20083;-45
2022/11/09 03:04:01;;;;;;;37.70;22.05;;;;;;;;;;2115329;28;20077;-42
2022/11/09 03:05:03;;;;;;;38.10;20.00;;;;;;;;;;2115082;28;20480;-42
2022/11/09 03:06:04;;;;;;;37.42;22.73;;;;;;;;;;2115085;28;20051;-42
2022/11/09 03:07:06;;;;;;;35.97;22.88;;;;;;;;;;2115093;28;20040;-42
2022/11/09 03:08:07;;;;;;;33.00;18.02;;;;;;;;;;2114837;28;20074;-42
2022/11/09 03:09:09;;;;;;;37.27;23.00;;;;;;;;;;2115328;28;20039;-46
2022/11/09 03:10:10;;;;;;;36.00;22.48;;;;;;;;;;2114920;28;20484;-47
2022/11/09 03:11:11;;;;;;;29.15;16.23;;;;;;;;;;2114911;28;20134;-46
2022/11/09 03:12:30;;;;;;;35.05;20.27;;;;;;;;;;2115086;28;20399;-42
2022/11/09 03:13:31;;;;;;;32.30;19.50;;;;;;;;;;2115134;28;20051;-42
2022/11/09 03:14:32;;;;;;;31.02;19.23;;;;;;;;;;2114920;28;20062;-42
2022/11/09 03:15:34;;;;;;;34.07;19.80;;;;;;;;;;2114851;28;20146;-42
2022/11/09 03:16:35;;;;;;;30.52;18.65;;;;;;;;;;2115076;28;20504;-46
2022/11/09 03:17:37;;;;;;;34.03;20.15;;;;;;;;;;2114942;28;20048;-47
2022/11/09 03:18:37;;;;;;;32.35;19.60;;;;;;;;;;2115020;28;20054;-46
2022/11/09 03:19:39;;;;;;;32.78;16.33;;;;;;;;;;2114946;28;20039;-46
2022/11/09 03:20:40;;;;;;;31.42;20.65;;;;;;;;;;2114876;28;20062;-47
2022/11/09 03:21:41;;;;;;;31.23;18.73;;;;;;;;;;2114905;28;20051;-46
2022/11/09 03:22:42;;;;;;;32.10;20.02;;;;;;;;;;2115059;28;20070;-46
2022/11/09 03:23:43;;;;;;;35.03;19.00;;;;;;;;;;2114856;28;20051;-46
2022/11/09 03:24:44;;;;;;;37.50;21.70;;;;;;;;;;2114825;28;20405;-47
2022/11/09 03:25:45;;;;;;;34.00;19.48;;;;;;;;;;2114833;28;20055;-46
2022/11/09 03:26:46;;;;;;;29.83;18.42;;;;;;;;;;2114831;28;20393;-46
2022/11/09 03:27:47;;;;;;;32.78;19.88;;;;;;;;;;2114920;28;20081;-45
2022/11/09 03:28:48;;;;;;;28.67;20.08;;;;;;;;;;2114985;28;20039;-45
2022/11/09 03:29:49;;;;;;;26.17;14.85;;;;;;;;;;2114853;28;20043;-45
2022/11/09 03:30:50;;;;;;;31.38;20.08;;;;;;;;;;2114676;28;20043;-46
2022/11/09 03:31:51;;;;;;;32.10;18.67;;;;;;;;;;2114804;28;20043;-46
2022/11/09 03:32:56;;;;;;;33.10;19.57;;;;;;;;;;2114807;28;20105;-47
2022/11/09 03:33:57;;;;;;;32.65;18.20;;;;;;;;;;2114977;28;20492;-47
2022/11/09 03:34:58;;;;;;;29.33;16.57;;;;;;;;;;2114785;28;20039;-46
2022/11/09 03:35:59;;;;;;;35.35;22.27;;;;;;;;;;2114930;28;20494;-42
2022/11/09 03:37:00;;;;;;;32.73;19.43;;;;;;;;;;2114787;28;20051;-42
2022/11/09 03:38:02;;;;;;;30.30;16.67;;;;;;;;;;2114916;28;20294;-42
2022/11/09 03:39:03;;;;;;;34.38;21.63;;;;;;;;;;2114697;28;20051;-41
2022/11/09 03:40:05;;;;;;;39.58;18.98;;;;;;;;;;2115096;28;20043;-42
2022/11/09 03:41:07;;;;;;;37.60;21.52;;;;;;;;;;2114873;28;20047;-46
2022/11/09 03:42:08;;;;;;;32.60;20.77;;;;;;;;;;2114818;28;20047;-42
2022/11/09 03:43:09;;;;;;;32.30;20.87;;;;;;;;;;2114735;28;20138;-42
2022/11/09 03:44:10;;;;;;;35.88;21.13;;;;;;;;;;2114946;28;20039;-45
2022/11/09 03:45:11;;;;;;;34.30;20.30;;;;;;;;;;2115082;28;20484;-41
2022/11/09 03:46:12;;;;;;;34.13;20.77;;;;;;;;;;2114600;28;20043;-42
2022/11/09 03:47:13;;;;;;;33.60;20.40;;;;;;;;;;2114847;28;20063;-42
2022/11/09 03:48:14;;;;;;;28.15;15.50;;;;;;;;;;2114768;28;20059;-42
2022/11/09 03:49:15;;;;;;;37.13;20.30;;;;;;;;;;2114691;28;20050;-42
2022/11/09 03:50:17;;;;;;;30.70;18.55;;;;;;;;;;2114775;28;20047;-42
2022/11/09 03:51:18;;;;;;;31.05;16.83;;;;;;;;;;2114599;28;20089;-42
2022/11/09 03:52:19;;;;;;;32.85;18.63;;;;;;;;;;2114924;28;20044;-42
2022/11/09 03:53:21;;;;;;;29.02;18.00;;;;;;;;;;2114615;28;20480;-41
2022/11/09 03:54:22;;;;;;;27.08;17.50;;;;;;;;;;2114753;28;20048;-41
2022/11/09 03:55:24;;;;;;;23.57;13.73;;;;;;;;;;2114660;28;20043;-41
2022/11/09 03:56:24;;;;;;;29.42;17.85;;;;;;;;;;2114709;28;20078;-41
2022/11/09 03:57:26;;;;;;;28.93;17.80;;;;;;;;;;2114567;28;20484;-41
2022/11/09 03:58:26;;;;;;;28.75;16.33;;;;;;;;;;2114372;28;20044;-41
2022/11/09 03:59:28;;;;;;;28.63;15.18;;;;;;;;;;2114665;28;20534;-41
2022/11/09 04:00:29;;;;;;;27.50;17.83;;;;;;;;;;2114713;28;20043;-45
2022/11/09 04:01:30;;;;;;;28.13;18.02;;;;;;;;;;2114861;28;20040;-41
2022/11/09 04:02:31;;;;;;;30.25;16.65;;;;;;;;;;2114596;28;20054;-41
2022/11/09 04:03:32;;;;;;;28.45;15.70;;;;;;;;;;2114675;28;20055;-41
2022/11/09 04:04:33;;;;;;;31.83;18.40;;;;;;;;;;2114564;28;20056;-41
2022/11/09 04:05:34;;;;;;;29.30;18.63;;;;;;;;;;2114526;28;20085;-41
2022/11/09 04:06:35;;;;;;;33.15;18.05;;;;;;;;;;2114509;28;20488;-41
2022/11/09 04:07:36;;;;;;;28.13;17.02;;;;;;;;;;2114686;28;20138;-41
2022/11/09 04:08:38;;;;;;;30.88;18.02;;;;;;;;;;2114515;28;20054;-41
2022/11/09 04:09:39;;;;;;;33.55;21.38;;;;;;;;;;2114673;28;20044;-41
2022/11/09 04:10:40;;;;;;;36.20;19.50;;;;;;;;;;2114539;28;20047;-41
2022/11/09 04:11:41;;;;;;;38.83;22.33;;;;;;;;;;2114687;28;20043;-46
2022/11/09 04:12:42;;;;;;;32.08;17.02;;;;;;;;;;2114726;28;20130;-41
2022/11/09 04:13:43;;;;;;;40.72;23.35;;;;;;;;;;2114574;28;20043;-41
2022/11/09 04:14:44;;;;;;;39.53;21.92;;;;;;;;;;2114522;28;20055;-42
2022/11/09 04:15:45;;;;;;;33.80;18.03;;;;;;;;;;2114418;28;20044;-41
2022/11/09 04:16:46;;;;;;;38.55;22.30;;;;;;;;;;2114488;28;20046;-41
2022/11/09 04:17:53;;;;;;;36.40;21.97;;;;;;;;;;2114720;28;20058;-42
2022/11/09 04:18:54;;;;;;;41.50;21.30;;;;;;;;;;2114631;28;20048;-41
2022/11/09 04:19:55;;;;;;;37.37;21.93;;;;;;;;;;2114063;28;20051;-41
2022/11/09 04:20:56;;;;;;;36.28;22.45;;;;;;;;;;2114196;28;20051;-41
2022/11/09 04:21:58;;;;;;;33.03;21.45;;;;;;;;;;2114512;28;20040;-41
2022/11/09 04:22:59;;;;;;;38.50;20.80;;;;;;;;;;2114683;28;20430;-41
2022/11/09 04:24:01;;;;;;;43.25;23.75;;;;;;;;;;2114417;28;20048;-41
2022/11/09 04:25:02;;;;;;;37.10;23.00;;;;;;;;;;2114831;28;20045;-46
2022/11/09 04:26:03;;;;;;;41.22;24.65;;;;;;;;;;2114561;28;20242;-45
2022/11/09 04:27:05;;;;;;;44.88;25.38;;;;;;;;;;2114625;28;20093;-41
2022/11/09 04:28:07;;;;;;;38.38;22.92;;;;;;;;;;2114826;28;20055;-45
2022/11/09 04:29:09;;;;;;;45.20;26.33;;;;;;;;;;2114595;28;20050;-41
2022/11/09 04:30:10;;;;;;;37.00;23.00;;;;;;;;;;2114592;28;20043;-41
2022/11/09 04:31:11;;;;;;;40.40;24.50;;;;;;;;;;2114258;28;20051;-41
2022/11/09 04:32:12;;;;;;;37.22;18.75;;;;;;;;;;2114515;28;20051;-41
2022/11/09 04:33:13;;;;;;;40.27;24.33;;;;;;;;;;2114687;28;20524;-46
2022/11/09 04:34:14;;;;;;;36.70;22.20;;;;;;;;;;2114650;28;20054;-46
2022/11/09 04:35:15;;;;;;;37.15;24.20;;;;;;;;;;2114725;28;20055;-41
2022/11/09 04:36:16;;;;;;;39.83;19.33;;;;;;;;;;2114396;28;20092;-41
2022/11/09 04:37:18;;;;;;;41.10;23.52;;;;;;;;;;2114504;28;20610;-41
2022/11/09 04:38:19;;;;;;;36.42;23.33;;;;;;;;;;2114364;28;20035;-41
2022/11/09 04:39:20;;;;;;;28.08;18.58;;;;;;;;;;2114722;28;20086;-41
2022/11/09 04:40:22;;;;;;;36.47;21.17;;;;;;;;;;2114484;28;20063;-41
2022/11/09 04:41:23;;;;;;;37.08;20.60;;;;;;;;;;2114421;28;20059;-41
2022/11/09 04:42:25;;;;;;;38.42;23.83;;;;;;;;;;2114363;28;20047;-41
2022/11/09 04:43:26;;;;;;;;;;;;;;;;;;2114784;28;20052;-41
2022/11/09 04:44:28;;;;;;;35.40;19.77;;;;;;;;;;2114265;28;20007;-41
2022/11/09 04:45:29;;;;;;;38.63;22.85;;;;;;;;;;2114320;28;20047;-41
2022/11/09 04:46:30;;;;;;;37.92;21.48;;;;;;;;;;2114292;28;20055;-41
2022/11/09 04:47:31;;;;;;;36.20;18.33;;;;;;;;;;2114454;28;20039;-41
2022/11/09 04:48:32;;;;;;;41.83;24.60;;;;;;;;;;2114867;28;20058;-46
2022/11/09 04:49:33;;;;;;;42.88;19.75;;;;;;;;;;2114486;28;20055;-46
2022/11/09 04:50:34;;;;;;;40.63;21.23;;;;;;;;;;2114299;28;20134;-45
2022/11/09 04:51:35;;;;;;;40.28;23.60;;;;;;;;;;2114541;28;20537;-44
2022/11/09 04:52:36;;;;;;;39.97;23.45;;;;;;;;;;2114290;28;20047;-46
2022/11/09 04:53:38;;;;;;;45.75;24.35;;;;;;;;;;2114749;28;20093;-40
2022/11/09 04:54:39;;;;;;;36.85;23.27;;;;;;;;;;2114128;28;20062;-41
2022/11/09 04:55:41;;;;;;;36.20;23.48;;;;;;;;;;2114282;28;20043;-41
2022/11/09 04:56:42;;;;;;;32.88;22.23;;;;;;;;;;2114292;28;20408;-41
2022/11/09 04:57:43;;;;;;;34.03;17.80;;;;;;;;;;2114195;28;20048;-41
2022/11/09 04:58:44;;;;;;;36.95;22.75;;;;;;;;;;2115028;28;20040;-41
2022/11/09 04:59:45;;;;;;;34.35;20.65;;;;;;;;;;2114259;28;20060;-41
2022/11/09 05:00:46;;;;;;;29.45;20.30;;;;;;;;;;2114220;28;20074;-46
2022/11/09 05:01:47;;;;;;;35.45;18.77;;;;;;;;;;2114205;28;20051;-45
2022/11/09 05:02:48;;;;;;;40.05;23.02;;;;;;;;;;2114267;28;20475;-46
2022/11/09 05:03:49;;;;;;;38.33;23.65;;;;;;;;;;2114901;28;20062;-45
2022/11/09 05:04:50;;;;;;;37.00;23.00;;;;;;;;;;2114353;28;20063;-45
2022/11/09 05:05:51;;;;;;;39.08;23.02;;;;;;;;;;2114566;28;20044;-45
2022/11/09 05:06:52;;;;;;;40.67;22.83;;;;;;;;;;2114698;28;20068;-44
2022/11/09 05:07:53;;;;;;;39.38;23.63;;;;;;;;;;2114721;28;20103;-45
2022/11/09 05:08:55;;;;;;;35.10;21.10;;;;;;;;;;2114378;28;20537;-45
2022/11/09 05:09:56;;;;;;;38.05;23.15;;;;;;;;;;2114237;28;20062;-45
2022/11/09 05:10:57;;;;;;;39.55;23.60;;;;;;;;;;2114285;28;20050;-46
2022/11/09 05:11:58;;;;;;;41.88;23.67;;;;;;;;;;2114296;28;20039;-41
2022/11/09 05:13:00;;;;;;;41.35;23.70;;;;;;;;;;2114776;28;20067;-45
2022/11/09 05:14:01;;;;;;;38.88;22.27;;;;;;;;;;2114252;28;20093;-42
2022/11/09 05:15:03;;;;;;;43.90;26.20;;;;;;;;;;2114442;28;20447;-42
2022/11/09 05:16:04;;;;;;;39.35;19.58;;;;;;;;;;2114241;28;20051;-46
2022/11/09 05:17:07;;;;;;;38.42;23.45;;;;;;;;;;2114506;28;20048;-42
2022/11/09 05:18:08;;;;;;;43.50;24.88;;;;;;;;;;2114631;28;20477;-45
2022/11/09 05:19:10;;;;;;;38.53;23.02;;;;;;;;;;2114550;28;20043;-42
2022/11/09 05:20:11;;;;;;;38.58;19.75;;;;;;;;;;2114511;28;20100;-46
2022/11/09 05:21:12;;;;;;;42.63;24.77;;;;;;;;;;2114173;28;20085;-45
2022/11/09 05:24:52;;;;;;;35.67;23.05;;;;;;;;;;2114185;28;20044;-46
2022/11/09 05:25:54;;;;;;;38.55;22.52;;;;;;;;;;2114054;28;20686;-46
2022/11/09 05:26:56;;;;;;;40.58;23.08;;;;;;;;;;2114323;28;20055;-42
2022/11/09 05:27:57;;;;;;;38.67;24.40;;;;;;;;;;2114727;28;20476;-42
2022/11/09 05:28:58;;;;;;;42.80;25.42;;;;;;;;;;2114408;28;20047;-45
2022/11/09 05:29:59;;;;;;;41.50;23.17;;;;;;;;;;2114322;28;20464;-47
2022/11/09 05:31:01;;;;;;;45.00;26.50;;;;;;;;;;2114086;28;20048;-46
2022/11/09 05:32:02;;;;;;;41.25;23.23;;;;;;;;;;2113986;28;20047;-46
2022/11/09 05:33:03;;;;;;;47.60;26.70;;;;;;;;;;2115603;28;20095;-46
2022/11/09 05:34:04;;;;;;;40.78;25.58;;;;;;;;;;2116253;28;20062;-46
2022/11/09 05:35:06;;;;;;;43.65;25.83;;;;;;;;;;2115831;28;20035;-42
2022/11/09 05:36:07;;;;;;;42.80;26.40;;;;;;;;;;2115515;28;20116;-42
2022/11/09 05:37:08;;;;;;;43.63;23.70;;;;;;;;;;2115656;28;20036;-42
2022/11/09 05:38:09;;;;;;;48.67;28.02;;;;;;;;;;2116116;28;20039;-42
2022/11/09 05:39:10;;;;;;;52.80;27.15;;;;;;;;;;2115754;28;20043;-43
2022/11/09 05:40:12;;;;;;;49.88;27.73;;;;;;;;;;2115639;28;20048;-43
2022/11/09 05:41:14;;;;;;;52.65;28.90;;;;;;;;;;2115602;28;20047;-43
2022/11/09 05:42:15;;;;;;;54.65;29.10;;;;;;;;;;2115522;28;20113;-43
2022/11/09 05:43:16;;;;;;;56.80;31.60;;;;;;;;;;2115563;28;20150;-43
2022/11/09 05:44:18;;;;;;;52.67;28.58;;;;;;;;;;2115807;28;20040;-46
2022/11/09 05:45:20;;;;;;;56.90;32.63;;;;;;;;;;2116158;28;20453;-44
2022/11/09 05:46:41;;;;;;;54.22;31.58;;;;;;;;;;2116124;28;20478;-47
2022/11/09 05:47:42;;;;;;;51.72;29.85;;;;;;;;;;2116045;28;20407;-44
2022/11/09 05:48:44;;;;;;;56.75;31.20;;;;;;;;;;2115766;28;20130;-47
2022/11/09 05:49:45;;;;;;;53.70;30.30;;;;;;;;;;2115725;28;20059;-43
2022/11/09 05:50:46;;;;;;;52.67;30.58;;;;;;;;;;2115229;28;20565;-43
2022/11/09 05:51:47;;;;;;;55.58;29.50;;;;;;;;;;2115450;28;20054;-43
2022/11/09 05:52:48;;;;;;;58.10;30.42;;;;;;;;;;2115931;28;20043;-45
2022/11/09 05:53:49;;;;;;;55.80;30.05;;;;;;;;;;2115551;28;20047;-45
2022/11/09 05:54:50;;;;;;;58.78;30.65;;;;;;;;;;2115382;28;20043;-46
2022/11/09 05:55:52;;;;;;;65.22;31.13;;;;;;;;;;2115469;28;20089;-45
2022/11/09 05:56:54;;;;;;;54.00;28.02;;;;;;;;;;2115631;28;20380;-45
2022/11/09 05:57:55;;;;;;;54.33;31.73;;;;;;;;;;2115801;28;20047;-42
2022/11/09 05:58:56;;;;;;;58.47;32.08;;;;;;;;;;2115359;28;20051;-42
2022/11/09 05:59:57;;;;;;;63.72;33.55;;;;;;;;;;2115364;28;20104;-42
2022/11/09 06:00:58;;;;;;;61.20;33.70;;;;;;;;;;2119014;28;20035;-46
2022/11/09 06:02:00;;;;;;;63.13;33.13;;;;;;;;;;2123974;28;20468;-46